Time;durP1;ratioP1;P1;durP2;ratioP2;P2;SDS_P1;SDS_P2;PMS_P1;PMS_P2;Temp;Humidity;BMP_temperature;BMP_pressure;BME280_temperature;BME280_humidity;BME280_pressure;Samples;Min_cycle;Max_cycle;Signal;HPM_P1;HPM_P2
2023/11/14 00:02:11;;;;;;;29.88;9.15;;;;;;;12.19;100.00;99974.63;10373041;28;20068;-71
2023/11/14 00:07:11;;;;;;;38.10;10.38;;;;;;;12.28;100.00;99994.97;10372533;28;20049;-71
2023/11/14 00:12:13;;;;;;;26.15;9.10;;;;;;;12.20;100.00;99987.13;10370853;28;20045;-71
2023/11/14 00:17:14;;;;;;;38.30;10.57;;;;;;;12.15;100.00;99997.84;10372146;28;20058;-71
2023/11/14 00:22:14;;;;;;;23.30;9.60;;;;;;;12.12;100.00;99997.47;10354245;28;20132;-71
2023/11/14 00:27:15;;;;;;;56.45;10.13;;;;;;;12.00;100.00;100002.88;10371420;28;20462;-71
2023/11/14 00:32:15;;;;;;;30.42;8.60;;;;;;;11.98;100.00;99980.56;10372048;28;20125;-71
2023/11/14 00:37:17;;;;;;;37.47;9.10;;;;;;;11.92;100.00;99989.59;10369238;28;20038;-71
2023/11/14 00:42:17;;;;;;;22.08;8.45;;;;;;;11.82;100.00;99990.94;10371381;28;20038;-71
2023/11/14 00:47:19;;;;;;;37.83;9.20;;;;;;;11.91;100.00;100007.78;10370420;28;20396;-71
2023/11/14 00:52:20;;;;;;;49.17;8.88;;;;;;;11.97;100.00;100012.28;10386677;28;20030;-71
2023/11/14 00:57:20;;;;;;;29.02;9.65;;;;;;;12.09;100.00;100004.19;10370471;28;20042;-71
2023/11/14 01:02:21;;;;;;;34.15;9.00;;;;;;;12.02;100.00;100012.41;10370256;28;20050;-71
2023/11/14 01:07:22;;;;;;;24.85;7.55;;;;;;;12.01;100.00;100020.78;10369766;28;20053;-71
2023/11/14 01:12:23;;;;;;;50.63;11.20;;;;;;;12.01;100.00;100002.63;10369670;28;20117;-72
2023/11/14 01:17:24;;;;;;;23.13;7.78;;;;;;;12.12;100.00;100030.88;10369431;28;20113;-71
2023/11/14 01:22:25;;;;;;;32.05;11.07;;;;;;;12.22;100.00;100031.16;10371896;28;20038;-71
2023/11/14 01:27:26;;;;;;;27.17;8.70;;;;;;;12.18;100.00;100039.97;10375246;28;20393;-71
2023/11/14 01:32:26;;;;;;;29.35;9.20;;;;;;;12.40;100.00;100043.03;10376029;28;20026;-71
2023/11/14 01:37:26;;;;;;;57.00;10.98;;;;;;;12.52;100.00;100043.91;10344180;28;20053;-71
2023/11/14 01:42:27;;;;;;;31.85;9.20;;;;;;;12.61;100.00;100053.38;10377939;28;20045;-72
2023/11/14 01:47:29;;;;;;;31.83;9.85;;;;;;;12.64;100.00;100058.34;10359561;28;20057;-71
2023/11/14 01:52:29;;;;;;;24.60;9.18;;;;;;;12.66;100.00;100096.13;10343439;28;20065;-72
2023/11/14 01:57:30;;;;;;;11.50;5.75;;;;;;;12.72;100.00;100082.44;10377030;28;20084;-71
2023/11/14 02:02:30;;;;;;;31.60;10.20;;;;;;;12.74;100.00;100107.50;10376359;28;20125;-72
2023/11/14 02:07:31;;;;;;;34.47;8.57;;;;;;;12.71;100.00;100088.97;10375231;28;20037;-72
2023/11/14 02:12:31;;;;;;;27.50;9.20;;;;;;;12.71;100.00;100094.38;10375563;28;20165;-72
2023/11/14 02:17:32;;;;;;;27.77;8.43;;;;;;;12.75;100.00;100106.44;10375175;28;20116;-71
2023/11/14 02:22:32;;;;;;;40.20;10.32;;;;;;;12.74;100.00;100109.41;10376658;28;20068;-71
2023/11/14 02:27:35;;;;;;;32.92;9.38;;;;;;;12.72;100.00;100101.47;10378242;28;20121;-71
2023/11/14 02:32:35;;;;;;;25.27;8.80;;;;;;;12.71;100.00;100112.59;10375197;28;20033;-71
2023/11/14 02:37:36;;;;;;;29.30;8.18;;;;;;;12.67;100.00;100109.50;10374235;28;20037;-71
2023/11/14 02:42:36;;;;;;;29.77;8.50;;;;;;;12.71;100.00;100115.28;10375425;28;20535;-71
2023/11/14 02:47:37;;;;;;;30.80;9.20;;;;;;;12.66;100.00;100107.81;10376824;28;20041;-71
2023/11/14 02:52:38;;;;;;;32.35;9.77;;;;;;;12.59;100.00;100117.97;10356623;28;20434;-71
2023/11/14 02:57:38;;;;;;;26.70;8.70;;;;;;;12.55;100.00;100127.63;10373324;28;20073;-71
2023/11/14 03:02:39;;;;;;;22.25;7.95;;;;;;;12.43;100.00;100135.72;10373253;28;20053;-71
2023/11/14 03:07:39;;;;;;;33.38;9.52;;;;;;;12.33;100.00;100157.16;10375637;28;20109;-72
2023/11/14 03:12:40;;;;;;;31.10;8.40;;;;;;;12.33;100.00;100149.81;10374365;28;20086;-71
2023/11/14 03:17:40;;;;;;;16.10;7.18;;;;;;;12.25;100.00;100123.00;10374514;28;20072;-71
2023/11/14 03:22:41;;;;;;;25.33;8.82;;;;;;;12.40;100.00;100155.19;10372224;28;20030;-71
2023/11/14 03:27:41;;;;;;;29.63;8.90;;;;;;;12.51;100.00;100168.00;10371365;28;20556;-72
2023/11/14 03:32:42;;;;;;;35.17;9.93;;;;;;;12.59;100.00;100163.31;10372836;28;20042;-71
2023/11/14 03:37:42;;;;;;;45.40;10.73;;;;;;;12.52;100.00;100174.25;10338286;28;20038;-71
2023/11/14 03:42:43;;;;;;;31.90;8.35;;;;;;;12.52;100.00;100160.69;10372107;28;20121;-71
2023/11/14 03:47:43;;;;;;;28.58;7.85;;;;;;;12.26;100.00;100168.09;10372467;28;20072;-71
2023/11/14 03:52:43;;;;;;;32.72;8.80;;;;;;;12.25;100.00;100176.44;10370799;28;20409;-71
2023/11/14 03:57:44;;;;;;;26.75;8.02;;;;;;;12.25;100.00;100165.59;10372436;28;20037;-71
2023/11/14 04:02:45;;;;;;;27.17;9.80;;;;;;;12.23;100.00;100173.16;10370463;28;20097;-72
2023/11/14 04:07:45;;;;;;;37.50;9.40;;;;;;;12.26;100.00;100178.94;10371780;28;20065;-71
2023/11/14 04:12:45;;;;;;;35.70;9.45;;;;;;;12.25;100.00;100179.16;10370815;28;20037;-71
2023/11/14 04:17:46;;;;;;;51.88;10.38;;;;;;;12.35;100.00;100176.75;10373058;28;20068;-71
2023/11/14 04:22:46;;;;;;;25.10;8.95;;;;;;;12.42;100.00;100169.38;10370782;28;20124;-72
2023/11/14 04:27:47;;;;;;;44.08;11.50;;;;;;;12.34;100.00;100180.50;10371344;28;20049;-73
2023/11/14 04:32:47;;;;;;;30.17;9.85;;;;;;;12.24;100.00;100185.66;10355268;28;20136;-72
2023/11/14 04:37:48;;;;;;;45.13;8.25;;;;;;;12.30;100.00;100174.72;10371422;28;20158;-72
2023/11/14 04:42:49;;;;;;;27.58;8.45;;;;;;;12.30;100.00;100172.00;10370414;28;20116;-71
2023/11/14 04:47:49;;;;;;;28.65;10.38;;;;;;;12.39;100.00;100175.25;10371786;28;20034;-71
2023/11/14 04:52:49;;;;;;;34.97;9.68;;;;;;;12.45;100.00;100179.78;10369727;28;20088;-71
2023/11/14 04:57:50;;;;;;;35.97;9.77;;;;;;;12.34;100.00;100197.63;10373878;28;20122;-71
2023/11/14 05:02:51;;;;;;;15.48;8.15;;;;;;;12.37;100.00;100214.53;10379102;28;20107;-72
2023/11/14 05:07:52;;;;;;;32.33;8.57;;;;;;;12.39;100.00;100207.84;10378889;28;20088;-71
2023/11/14 05:12:52;;;;;;;23.02;9.82;;;;;;;12.37;100.00;100200.97;10377975;28;20056;-71
2023/11/14 05:17:54;;;;;;;20.73;8.48;;;;;;;12.30;100.00;100188.28;10377744;28;20168;-71
2023/11/14 05:22:55;;;;;;;34.15;10.60;;;;;;;12.28;100.00;100193.13;10376397;28;20026;-71
2023/11/14 05:27:55;;;;;;;40.75;9.27;;;;;;;12.36;100.00;100194.72;10359707;28;20042;-72
2023/11/14 05:32:55;;;;;;;35.08;10.40;;;;;;;12.32;100.00;100196.22;10376236;28;20030;-71
2023/11/14 05:37:56;;;;;;;34.75;9.50;;;;;;;12.40;100.00;100211.38;10376362;28;20037;-71
2023/11/14 05:42:56;;;;;;;32.80;9.18;;;;;;;12.45;100.00;100209.66;10375945;28;20061;-72
2023/11/14 05:47:57;;;;;;;28.38;8.55;;;;;;;12.35;100.00;100203.91;10392915;28;20046;-71
2023/11/14 05:52:57;;;;;;;37.47;9.15;;;;;;;12.42;100.00;100223.66;10358611;28;20157;-72
2023/11/14 05:57:58;;;;;;;41.28;12.13;;;;;;;12.49;100.00;100231.75;10391990;28;20454;-71
2023/11/14 06:02:59;;;;;;;45.33;9.52;;;;;;;12.58;100.00;100241.25;10358392;28;20044;-71
2023/11/14 06:08:00;;;;;;;28.92;10.23;;;;;;;12.65;100.00;100258.28;10373930;28;20038;-71
2023/11/14 06:13:02;;;;;;;26.58;7.53;;;;;;;12.67;100.00;100256.19;10373892;28;20129;-71
2023/11/14 06:18:03;;;;;;;27.98;9.52;;;;;;;12.69;100.00;100256.78;10374957;28;20423;-71
2023/11/14 06:23:03;;;;;;;27.52;7.50;;;;;;;12.68;100.00;100238.81;10374091;28;20049;-72
2023/11/14 06:28:04;;;;;;;31.85;9.40;;;;;;;12.68;100.00;100238.00;10373216;28;20141;-71
2023/11/14 06:33:04;;;;;;;27.05;10.02;;;;;;;12.70;100.00;100246.72;10374314;28;20068;-71
2023/11/14 06:38:04;;;;;;;24.45;9.27;;;;;;;12.62;100.00;100238.91;10374742;28;20038;-71
2023/11/14 06:43:06;;;;;;;40.22;9.95;;;;;;;12.49;100.00;100237.16;10374232;28;20117;-71
2023/11/14 06:48:06;;;;;;;41.83;12.38;;;;;;;12.44;100.00;100248.69;10373799;28;20169;-71
2023/11/14 06:53:07;;;;;;;27.50;9.60;;;;;;;12.52;100.00;100248.41;10372995;28;20145;-71
2023/11/14 06:58:08;;;;;;;44.28;12.13;;;;;;;12.63;100.00;100259.56;10372544;28;20042;-71
2023/11/14 07:03:08;;;;;;;35.10;7.38;;;;;;;12.67;100.00;100268.94;10355114;28;20045;-71
2023/11/14 07:08:10;;;;;;;43.88;9.88;;;;;;;12.72;100.00;100263.66;10373126;28;20423;-71
2023/11/14 07:13:10;;;;;;;25.17;8.63;;;;;;;12.74;100.00;100278.66;10373057;28;20072;-71
2023/11/14 07:18:11;;;;;;;21.35;8.52;;;;;;;12.69;100.00;100267.63;10370742;28;20096;-71
2023/11/14 07:23:11;;;;;;;35.78;11.95;;;;;;;12.66;100.00;100287.09;10371619;28;20116;-71
2023/11/14 07:28:12;;;;;;;39.65;9.80;;;;;;;12.69;100.00;100270.34;10388182;28;20395;-71
2023/11/14 07:33:13;;;;;;;37.60;10.65;;;;;;;12.55;100.00;100272.41;10370674;28;20049;-71
2023/11/14 07:38:14;;;;;;;18.73;6.13;;;;;;;12.57;100.00;100275.72;10373579;28;20038;-71
2023/11/14 07:43:14;;;;;;;45.95;9.45;;;;;;;12.40;100.00;100266.50;10370395;28;20034;-71
2023/11/14 07:48:16;;;;;;;42.25;11.20;;;;;;;12.29;100.00;100269.97;10354097;28;20042;-71
2023/11/14 07:53:17;;;;;;;40.60;11.13;;;;;;;12.26;100.00;100273.97;10371601;28;20108;-72
2023/11/14 07:58:20;;;;;;;30.08;10.43;;;;;;;12.28;100.00;100273.72;10372296;28;20400;-71
2023/11/14 08:03:20;;;;;;;45.28;9.70;;;;;;;12.25;100.00;100266.03;10369288;28;20026;-71
2023/11/14 08:08:21;;;;;;;27.83;6.28;;;;;;;12.09;100.00;100259.28;10371722;28;20087;-71
2023/11/14 08:13:21;;;;;;;43.00;10.02;;;;;;;12.11;100.00;100257.19;10370834;28;20105;-71
2023/11/14 08:18:21;;;;;;;28.92;9.27;;;;;;;12.02;100.00;100263.94;10353961;28;20034;-71
2023/11/14 08:23:22;;;;;;;22.08;9.10;;;;;;;12.14;100.00;100259.47;10369235;28;20029;-71
2023/11/14 08:28:23;;;;;;;33.78;10.38;;;;;;;12.29;100.00;100259.13;10370652;28;20426;-71
2023/11/14 08:33:24;;;;;;;26.15;8.32;;;;;;;12.57;100.00;100269.44;10377399;28;20045;-71
2023/11/14 08:38:27;;;;;;;34.20;6.93;;;;;;;12.58;100.00;100268.41;10378972;28;20041;-71
2023/11/14 08:43:27;;;;;;;28.40;7.85;;;;;;;12.79;100.00;100270.69;10378399;28;20078;-71
2023/11/14 08:48:28;;;;;;;27.35;8.68;;;;;;;13.00;100.00;100276.69;10378102;28;20095;-71
2023/11/14 08:53:28;;;;;;;26.60;8.77;;;;;;;13.18;100.00;100271.22;10378078;28;20057;-71
2023/11/14 08:58:29;;;;;;;29.95;8.75;;;;;;;13.29;100.00;100275.06;10378242;28;20038;-71
2023/11/14 09:03:30;;;;;;;31.30;8.48;;;;;;;13.46;100.00;100270.66;10376272;28;20103;-71
2023/11/14 09:08:31;;;;;;;41.95;8.98;;;;;;;13.40;100.00;100260.69;10376684;28;20041;-71
2023/11/14 09:13:31;;;;;;;27.50;10.23;;;;;;;13.45;100.00;100260.81;10377730;28;20045;-72
2023/11/14 09:18:34;;;;;;;32.88;8.57;;;;;;;13.57;100.00;100269.00;10377216;28;20045;-71
2023/11/14 09:23:34;;;;;;;27.95;7.82;;;;;;;13.98;100.00;100274.66;10377438;28;20056;-71
2023/11/14 09:28:35;;;;;;;45.97;10.50;;;;;;;14.24;100.00;100273.34;10376616;28;20088;-71
2023/11/14 09:33:36;;;;;;;20.70;7.07;;;;;;;14.83;100.00;100283.13;10375207;28;20057;-72
2023/11/14 09:38:38;;;;;;;31.33;8.30;;;;;;;14.86;100.00;100273.66;10374971;28;20034;-71
2023/11/14 09:43:40;;;;;;;16.98;6.60;;;;;;;14.64;100.00;100270.72;10374341;28;20140;-71
2023/11/14 09:48:42;;;;;;;25.15;7.60;;;;;;;14.27;100.00;100275.59;10375536;28;20033;-71
2023/11/14 09:53:44;;;;;;;26.90;6.93;;;;;;;14.17;100.00;100277.03;10358055;28;20084;-71
2023/11/14 09:58:45;;;;;;;29.38;7.47;;;;;;;14.15;100.00;100278.31;10358303;28;20070;-72
2023/11/14 10:03:46;;;;;;;29.45;8.85;;;;;;;13.93;100.00;100270.72;10357966;28;20378;-71
2023/11/14 10:08:47;;;;;;;24.75;8.13;;;;;;;13.95;100.00;100278.66;10374835;28;20109;-71
2023/11/14 10:13:48;;;;;;;26.23;8.57;;;;;;;13.98;100.00;100277.38;10373662;28;20094;-71
2023/11/14 10:18:50;;;;;;;19.42;8.23;;;;;;;14.06;100.00;100275.13;10374404;28;20036;-71
2023/11/14 10:23:51;;;;;;;30.92;10.95;;;;;;;14.05;100.00;100278.09;10356749;28;20038;-71
2023/11/14 10:28:55;;;;;;;16.70;7.88;;;;;;;14.07;100.00;100268.63;10373718;28;20041;-71
2023/11/14 10:33:55;;;;;;;24.67;9.00;;;;;;;14.18;100.00;100262.34;10372982;28;20464;-71
2023/11/14 10:39:04;;;;;;;21.55;6.70;;;;;;;14.18;100.00;100269.69;10374297;28;20125;-71
2023/11/14 10:44:14;;;;;;;29.25;9.90;;;;;;;14.17;100.00;100266.13;10374028;28;20117;-71
2023/11/14 10:49:14;;;;;;;40.50;10.45;;;;;;;14.29;100.00;100263.38;10373716;28;20034;-72
2023/11/14 10:54:15;;;;;;;21.33;9.25;;;;;;;14.36;100.00;100249.66;10371604;28;20137;-71
2023/11/14 10:59:16;;;;;;;23.98;9.00;;;;;;;14.38;100.00;100237.44;10373762;28;20217;-71
2023/11/14 11:04:17;;;;;;;28.27;8.05;;;;;;;14.26;100.00;100235.81;10371452;28;20474;-71
2023/11/14 11:09:18;;;;;;;33.80;9.10;;;;;;;14.34;100.00;100239.00;10371791;28;20099;-71
2023/11/14 11:14:19;;;;;;;32.97;8.68;;;;;;;14.41;100.00;100236.97;10339613;28;20058;-71
2023/11/14 11:19:28;;;;;;;34.83;9.68;;;;;;;14.36;100.00;100228.72;10371291;28;20069;-71
2023/11/14 11:24:29;;;;;;;40.33;9.85;;;;;;;14.37;100.00;100215.91;10372248;28;20056;-71
2023/11/14 11:29:48;;;;;;;24.40;8.60;;;;;;;14.25;100.00;100215.09;10371091;28;20536;-71
2023/11/14 11:35:21;;;;;;;25.00;7.00;;;;;;;14.20;100.00;100207.66;10355470;28;20469;-71
2023/11/14 11:40:26;;;;;;;32.83;8.48;;;;;;;14.23;100.00;100209.91;10363461;28;20045;-71
2023/11/14 11:45:37;;;;;;;29.92;9.90;;;;;;;14.19;100.00;100198.63;10354586;28;20084;-71
2023/11/14 11:50:38;;;;;;;21.27;7.05;;;;;;;14.10;100.00;100188.34;10370413;28;20034;-72
2023/11/14 11:55:39;;;;;;;43.88;10.20;;;;;;;14.09;100.00;100195.69;10369595;28;20080;-71
2023/11/14 12:00:40;;;;;;;24.08;9.50;;;;;;;14.07;100.00;100194.25;10371600;28;20065;-71
2023/11/14 12:05:41;;;;;;;26.35;10.55;;;;;;;13.97;100.00;100178.53;10369670;28;20072;-71
2023/11/14 12:10:43;;;;;;;43.58;9.68;;;;;;;13.83;100.00;100174.41;10338543;28;20038;-71
2023/11/14 12:15:44;;;;;;;37.13;10.45;;;;;;;13.75;100.00;100158.41;10370785;28;20409;-71
2023/11/14 12:20:44;;;;;;;29.15;8.73;;;;;;;13.67;100.00;100151.44;10353427;28;20124;-71
2023/11/14 12:25:45;;;;;;;35.53;8.60;;;;;;;13.68;100.00;100140.31;10337471;28;20471;-71
2023/11/14 12:31:02;;;;;;;37.22;10.15;;;;;;;13.71;100.00;100145.28;10370199;28;20405;-71
2023/11/14 12:36:03;;;;;;;41.17;9.60;;;;;;;13.67;100.00;100138.66;10370440;28;20084;-71
2023/11/14 12:41:24;;;;;;;45.30;9.60;;;;;;;13.59;100.00;100132.75;10368871;28;20042;-71
2023/11/14 12:46:46;;;;;;;35.30;9.13;;;;;;;13.56;100.00;100119.63;10369755;28;20470;-71
2023/11/14 12:51:51;;;;;;;30.20;9.35;;;;;;;13.47;100.00;100117.25;10370803;28;20038;-71
2023/11/14 12:56:54;;;;;;;60.72;12.43;;;;;;;13.40;100.00;100118.41;10353473;28;20046;-71
2023/11/14 13:01:55;;;;;;;27.55;10.63;;;;;;;13.36;100.00;100117.25;10352921;28;20187;-71
2023/11/14 13:06:56;;;;;;;28.95;8.80;;;;;;;13.31;100.00;100119.84;10370251;28;20128;-71
2023/11/14 13:11:56;;;;;;;22.10;7.13;;;;;;;13.27;100.00;100116.75;10369722;28;20120;-71
2023/11/14 13:16:57;;;;;;;40.53;8.07;;;;;;;13.25;100.00;100117.00;10370190;28;20044;-71
2023/11/14 13:21:57;;;;;;;15.85;6.78;;;;;;;13.19;100.00;100104.31;10377193;28;20088;-71
2023/11/14 13:26:58;;;;;;;17.13;6.15;;;;;;;13.01;100.00;100099.78;10377858;28;20107;-71
2023/11/14 13:31:58;;;;;;;14.52;6.97;;;;;;;13.11;100.00;100104.63;10377806;28;20061;-71
2023/11/14 13:36:59;;;;;;;23.63;6.05;;;;;;;12.94;100.00;100096.34;10376837;28;20056;-71
2023/11/14 13:41:59;;;;;;;14.13;5.40;;;;;;;12.86;100.00;100083.09;10377079;28;20046;-71
2023/11/14 13:47:00;;;;;;;18.25;5.10;;;;;;;12.70;100.00;100075.59;10376717;28;20092;-71
2023/11/14 13:52:03;;;;;;;15.65;4.32;;;;;;;12.40;100.00;100075.59;10376628;28;20061;-70
2023/11/14 13:57:04;;;;;;;14.80;4.28;;;;;;;12.13;100.00;100067.81;10377007;28;20057;-71
2023/11/14 14:02:05;;;;;;;20.15;4.15;;;;;;;11.85;100.00;100073.78;10374628;28;20080;-70
2023/11/14 14:07:05;;;;;;;1.67;1.63;;;;;;;11.61;100.00;100056.47;10375858;28;20038;-71
2023/11/14 14:12:08;;;;;;;0.47;0.47;;;;;;;11.48;100.00;100040.34;10375812;28;20120;-70
2023/11/14 14:17:09;;;;;;;6.13;2.83;;;;;;;11.44;100.00;100039.97;10358148;28;20072;-71
2023/11/14 14:22:09;;;;;;;0.40;0.40;;;;;;;11.31;100.00;100021.16;10356844;28;20111;-71
2023/11/14 14:27:10;;;;;;;0.60;0.60;;;;;;;11.20;100.00;100032.69;10375577;28;20073;-71
2023/11/14 14:32:11;;;;;;;4.05;3.70;;;;;;;11.12;100.00;100023.81;10373060;28;20060;-71
2023/11/14 14:37:12;;;;;;;0.40;0.40;;;;;;;11.06;100.00;100037.44;10374135;28;20030;-70
2023/11/14 14:42:13;;;;;;;1.00;1.00;;;;;;;10.93;100.00;100025.66;10374590;28;20438;-72
2023/11/14 14:47:15;;;;;;;0.60;0.60;;;;;;;10.90;100.00;100009.84;10373983;28;20108;-72
2023/11/14 14:52:15;;;;;;;1.23;1.23;;;;;;;10.91;100.00;100002.53;10373861;28;20125;-71
2023/11/14 14:57:16;;;;;;;0.50;0.50;;;;;;;10.84;100.00;99999.88;10373643;28;20137;-71
2023/11/14 15:02:17;;;;;;;0.40;0.40;;;;;;;10.75;100.00;100014.75;10371545;28;20046;-71
2023/11/14 15:07:17;;;;;;;0.32;0.32;;;;;;;10.77;100.00;100012.66;10372006;28;20125;-72
2023/11/14 15:12:22;;;;;;;0.70;0.70;;;;;;;10.66;100.00;99995.25;10374003;28;20042;-71
2023/11/14 15:17:23;;;;;;;0.30;0.30;;;;;;;10.64;100.00;99989.22;10356199;28;20038;-71
2023/11/14 15:22:24;;;;;;;1.00;1.00;;;;;;;10.58;100.00;99987.41;10372259;28;20034;-71
2023/11/14 15:27:24;;;;;;;0.40;0.40;;;;;;;10.55;100.00;99989.72;10370827;28;20116;-71
2023/11/14 15:32:25;;;;;;;0.43;0.43;;;;;;;10.56;100.00;99994.91;10372109;28;20213;-71
2023/11/14 15:37:25;;;;;;;0.60;0.60;;;;;;;10.59;100.00;99996.34;10371429;28;20103;-72
2023/11/14 15:42:26;;;;;;;0.50;0.50;;;;;;;10.60;100.00;100004.25;10369493;28;20393;-72
2023/11/14 15:47:26;;;;;;;0.40;0.40;;;;;;;10.63;100.00;100005.69;10372477;28;20084;-72
2023/11/14 15:52:27;;;;;;;0.40;0.40;;;;;;;10.64;100.00;100002.75;10371999;28;20049;-74
2023/11/14 15:57:28;;;;;;;0.40;0.40;;;;;;;10.67;100.00;99993.38;10370587;28;20042;-74
2023/11/14 16:02:28;;;;;;;2.25;2.05;;;;;;;10.65;100.00;99995.47;10370830;28;20495;-74
2023/11/14 16:07:29;;;;;;;0.32;0.32;;;;;;;10.66;100.00;99994.44;10371580;28;20038;-74
2023/11/14 16:12:29;;;;;;;2.10;2.03;;;;;;;10.64;100.00;99991.09;10371827;28;20041;-73
2023/11/14 16:17:30;;;;;;;7.88;3.90;;;;;;;10.63;100.00;99997.59;10385538;28;20097;-74
2023/11/14 16:22:32;;;;;;;0.30;0.30;;;;;;;10.63;100.00;100001.13;10370401;28;20121;-74
2023/11/14 16:27:32;;;;;;;3.05;2.88;;;;;;;10.62;100.00;99996.72;10370617;28;20060;-74
2023/11/14 16:32:33;;;;;;;0.47;0.47;;;;;;;10.67;100.00;100001.50;10370121;28;20034;-73
2023/11/14 16:37:33;;;;;;;0.77;0.77;;;;;;;10.71;100.00;100000.81;10368604;28;20038;-73
2023/11/14 16:42:33;;;;;;;0.38;0.38;;;;;;;10.67;100.00;100015.84;10370255;28;20030;-73
2023/11/14 16:47:34;;;;;;;1.75;1.75;;;;;;;10.71;100.00;100018.94;10352563;28;20112;-73
2023/11/14 16:52:34;;;;;;;29.83;2.75;;;;;;;10.66;100.00;100021.50;10370264;28;20049;-74
2023/11/14 16:57:37;;;;;;;7.43;3.70;;;;;;;10.60;100.00;100025.09;10378674;28;20107;-73
2023/11/14 17:02:38;;;;;;;0.50;0.50;;;;;;;10.59;100.00;100034.25;10376648;28;20073;-74
2023/11/14 17:07:38;;;;;;;0.40;0.40;;;;;;;10.60;100.00;100041.34;10376540;28;20517;-73
2023/11/14 17:12:39;;;;;;;1.20;1.20;;;;;;;10.60;100.00;100041.34;10376273;28;20511;-73
2023/11/14 17:17:39;;;;;;;0.40;0.40;;;;;;;10.69;100.00;100048.16;10376950;28;20455;-73
2023/11/14 17:22:41;;;;;;;0.98;0.98;;;;;;;10.69;100.00;100059.81;10377210;28;20038;-73
2023/11/14 17:27:42;;;;;;;0.47;0.47;;;;;;;10.69;100.00;100053.56;10374640;28;20405;-74
2023/11/14 17:32:42;;;;;;;2.03;1.92;;;;;;;10.64;100.00;100051.50;10376717;28;20034;-73
2023/11/14 17:37:42;;;;;;;0.40;0.40;;;;;;;10.60;100.00;100065.69;10375328;28;20061;-74
2023/11/14 17:42:43;;;;;;;2.00;0.80;;;;;;;10.55;100.00;100081.75;10375020;28;20102;-74
2023/11/14 17:47:43;;;;;;;0.40;0.40;;;;;;;10.58;100.00;100098.38;10376831;28;20034;-74
2023/11/14 17:52:45;;;;;;;1.25;1.15;;;;;;;10.61;100.00;100105.25;10391292;28;20243;-76
2023/11/14 17:57:46;;;;;;;1.85;1.75;;;;;;;10.52;100.00;100112.78;10376510;28;20065;-74
2023/11/14 18:02:46;;;;;;;0.50;0.50;;;;;;;10.54;100.00;100118.00;10375543;28;20469;-74
2023/11/14 18:07:46;;;;;;;0.40;0.40;;;;;;;10.48;100.00;100119.69;10374931;28;20433;-73
2023/11/14 18:12:47;;;;;;;0.40;0.40;;;;;;;10.52;100.00;100123.63;10374315;28;20117;-74
2023/11/14 18:17:53;;;;;;;0.50;0.50;;;;;;;10.61;100.00;100138.56;10374989;28;20491;-74
2023/11/14 18:22:54;;;;;;;0.40;0.40;;;;;;;10.73;100.00;100151.44;10375491;28;20034;-74
2023/11/14 18:27:54;;;;;;;0.40;0.40;;;;;;;10.77;100.00;100160.78;10375686;28;20172;-74
2023/11/14 18:32:55;;;;;;;0.40;0.40;;;;;;;10.86;100.00;100176.56;10373849;28;20070;-74
2023/11/14 18:37:57;;;;;;;0.40;0.40;;;;;;;10.92;100.00;100172.97;10374489;28;20166;-74
2023/11/14 18:42:57;;;;;;;1.90;1.85;;;;;;;10.96;100.00;100181.50;10374868;28;20044;-74
2023/11/14 18:47:58;;;;;;;2.85;1.85;;;;;;;10.94;100.00;100195.28;10373974;28;20053;-74
2023/11/14 18:52:58;;;;;;;1.02;1.02;;;;;;;11.01;100.00;100213.34;10373291;28;20124;-74
2023/11/14 18:57:58;;;;;;;2.50;2.40;;;;;;;10.98;100.00;100222.75;10373812;28;20101;-74
2023/11/14 19:02:59;;;;;;;3.13;2.90;;;;;;;10.88;100.00;100235.91;10374755;28;20079;-73
2023/11/14 19:08:00;;;;;;;0.50;0.50;;;;;;;10.93;100.00;100255.91;10356785;28;20068;-73
2023/11/14 19:13:00;;;;;;;1.08;1.08;;;;;;;10.88;100.00;100271.13;10356503;28;20557;-73
2023/11/14 19:18:01;;;;;;;4.93;1.35;;;;;;;10.82;100.00;100269.31;10372904;28;20168;-73
2023/11/14 19:23:03;;;;;;;6.57;3.42;;;;;;;10.78;100.00;100279.72;10371736;28;20477;-73
2023/11/14 19:28:04;;;;;;;0.30;0.30;;;;;;;10.74;100.00;100294.72;10371493;28;20044;-73
2023/11/14 19:33:04;;;;;;;0.50;0.50;;;;;;;10.78;100.00;100295.97;10371497;28;20064;-72
2023/11/14 19:38:05;;;;;;;1.77;1.67;;;;;;;10.83;100.00;100309.72;10373758;28;20433;-73
2023/11/14 19:43:06;;;;;;;1.77;1.73;;;;;;;10.89;100.00;100321.56;10371125;28;20441;-73
2023/11/14 19:48:07;;;;;;;5.18;4.38;;;;;;;10.99;100.00;100345.50;10370779;28;20093;-73
2023/11/14 19:53:07;;;;;;;0.47;0.47;;;;;;;10.97;100.00;100359.25;10371472;28;20134;-73
2023/11/14 19:58:07;;;;;;;0.85;0.85;;;;;;;11.02;100.00;100354.03;10370233;28;20042;-72
2023/11/14 20:03:08;;;;;;;0.50;0.50;;;;;;;11.10;100.00;100363.78;10370677;28;20085;-72
2023/11/14 20:08:08;;;;;;;14.90;1.13;;;;;;;10.99;100.00;100373.41;10370179;28;20064;-72
2023/11/14 20:13:09;;;;;;;4.50;3.60;;;;;;;10.80;100.00;100377.84;10370043;28;20081;-73
2023/11/14 20:18:09;;;;;;;1.00;1.00;;;;;;;10.78;100.00;100398.06;10371980;28;20116;-72
2023/11/14 20:23:10;;;;;;;1.70;1.63;;;;;;;10.80;100.00;100407.63;10372400;28;20096;-72
2023/11/14 20:28:10;;;;;;;25.02;7.70;;;;;;;10.91;100.00;100412.41;10375942;28;20045;-74
2023/11/14 20:33:13;;;;;;;12.38;3.20;;;;;;;10.88;100.00;100426.38;10379396;28;20112;-74
2023/11/14 20:38:16;;;;;;;2.40;2.30;;;;;;;10.81;100.00;100420.13;10377348;28;20045;-72
2023/11/14 20:43:17;;;;;;;0.47;0.47;;;;;;;10.86;100.00;100436.59;10362448;28;20085;-72
2023/11/14 20:48:17;;;;;;;2.22;1.38;;;;;;;10.92;100.00;100446.59;10379266;28;20086;-74
2023/11/14 20:53:18;;;;;;;1.80;1.70;;;;;;;10.93;100.00;100458.25;10379773;28;20473;-73
2023/11/14 20:58:18;;;;;;;3.22;2.97;;;;;;;10.99;100.00;100473.66;10378583;28;20061;-76
2023/11/14 21:03:22;;;;;;;1.88;1.85;;;;;;;10.90;100.00;100480.34;10378457;28;20104;-76
2023/11/14 21:08:23;;;;;;;2.72;2.53;;;;;;;10.92;100.00;100491.81;10361272;28;20042;-75
2023/11/14 21:13:23;;;;;;;10.93;5.60;;;;;;;10.89;100.00;100494.94;10379298;28;20516;-74
2023/11/14 21:18:24;;;;;;;11.90;3.10;;;;;;;10.85;100.00;100496.41;10378344;28;20161;-74
2023/11/14 21:23:24;;;;;;;0.40;0.40;;;;;;;10.78;100.00;100509.09;10377556;28;20034;-74
2023/11/14 21:28:25;;;;;;;0.93;0.93;;;;;;;10.79;100.00;100516.19;10378692;28;20057;-74
2023/11/14 21:33:27;;;;;;;1.00;1.00;;;;;;;10.77;100.00;100532.66;10376549;28;20436;-75
2023/11/14 21:38:28;;;;;;;1.55;1.55;;;;;;;10.80;100.00;100534.94;10375491;28;20042;-74
2023/11/14 21:43:28;;;;;;;2.35;1.88;;;;;;;10.72;100.00;100548.69;10345369;28;20034;-74
2023/11/14 21:48:29;;;;;;;1.10;1.10;;;;;;;10.60;100.00;100547.63;10375497;28;20113;-74
2023/11/14 21:53:30;;;;;;;0.77;0.77;;;;;;;10.53;100.00;100558.47;10375914;28;20050;-74
2023/11/14 21:58:31;;;;;;;1.33;1.33;;;;;;;10.53;100.00;100568.44;10376112;28;20046;-74
2023/11/14 22:03:32;;;;;;;16.52;1.33;;;;;;;10.62;100.00;100578.03;10376331;28;20152;-75
2023/11/14 22:08:32;;;;;;;0.40;0.40;;;;;;;10.66;100.00;100590.16;10377076;28;20064;-74
2023/11/14 22:13:32;;;;;;;1.20;1.20;;;;;;;10.73;100.00;100598.28;10378576;28;20038;-74
2023/11/14 22:18:33;;;;;;;2.08;2.00;;;;;;;10.74;100.00;100605.34;10379243;28;20470;-74
2023/11/14 22:23:33;;;;;;;0.75;0.75;;;;;;;10.81;100.00;100615.16;10377813;28;20122;-75
2023/11/14 22:28:35;;;;;;;0.85;0.85;;;;;;;10.89;100.00;100614.13;10377723;28;20073;-75
2023/11/14 22:33:36;;;;;;;0.40;0.40;;;;;;;10.93;100.00;100631.63;10374197;28;20034;-74
2023/11/14 22:38:36;;;;;;;0.85;0.85;;;;;;;10.98;100.00;100641.88;10375846;28;20038;-75